sensor_id;sensor_type;location;lat;lon;timestamp;pressure;altitude;pressure_sealevel;temperature;humidity
22582;BME280;47125;48.542;9.052;2023-06-10T00:05:27;95660.84;;;20.48;51.67
22582;BME280;47125;48.542;9.052;2023-06-10T00:15:31;95659.03;;;20.44;51.50
22582;BME280;47125;48.542;9.052;2023-06-10T00:25:35;95667.69;;;20.46;51.33
22582;BME280;47125;48.542;9.052;2023-06-10T00:35:37;95652.38;;;20.14;52.36
22582;BME280;47125;48.542;9.052;2023-06-10T00:45:41;95659.84;;;20.08;52.63
22582;BME280;47125;48.542;9.052;2023-06-10T00:55:43;95652.53;;;19.95;53.37
22582;BME280;47125;48.542;9.052;2023-06-10T01:05:48;95656.88;;;19.69;53.83
22582;BME280;47125;48.542;9.052;2023-06-10T01:15:53;95658.91;;;19.50;54.52
22582;BME280;47125;48.542;9.052;2023-06-10T01:25:58;95646.75;;;19.47;55.10
22582;BME280;47125;48.542;9.052;2023-06-10T01:36:02;95654.88;;;19.34;55.84
22582;BME280;47125;48.542;9.052;2023-06-10T01:46:06;95653.91;;;19.43;55.12
22582;BME280;47125;48.542;9.052;2023-06-10T01:56:09;95650.75;;;19.36;55.95
22582;BME280;47125;48.542;9.052;2023-06-10T02:06:13;95660.09;;;19.30;56.63
22582;BME280;47125;48.542;9.052;2023-06-10T02:16:15;95667.09;;;19.17;57.45
22582;BME280;47125;48.542;9.052;2023-06-10T02:26:19;95674.88;;;19.05;58.20
22582;BME280;47125;48.542;9.052;2023-06-10T02:36:22;95674.06;;;18.91;58.56
22582;BME280;47125;48.542;9.052;2023-06-10T02:46:26;95667.72;;;18.82;58.66
22582;BME280;47125;48.542;9.052;2023-06-10T02:56:30;95684.66;;;18.74;58.48
22582;BME280;47125;48.542;9.052;2023-06-10T03:06:35;95698.41;;;18.59;58.65
22582;BME280;47125;48.542;9.052;2023-06-10T03:16:39;95701.84;;;18.64;59.12
22582;BME280;47125;48.542;9.052;2023-06-10T03:26:45;95713.53;;;18.60;59.46
22582;BME280;47125;48.542;9.052;2023-06-10T03:36:47;95716.00;;;18.38;60.44
22582;BME280;47125;48.542;9.052;2023-06-10T03:46:51;95712.09;;;18.49;60.12
22582;BME280;47125;48.542;9.052;2023-06-10T03:56:54;95713.13;;;18.53;60.56
22582;BME280;47125;48.542;9.052;2023-06-10T04:06:58;95724.03;;;18.43;61.62
22582;BME280;47125;48.542;9.052;2023-06-10T04:17:01;95728.41;;;18.39;62.33
22582;BME280;47125;48.542;9.052;2023-06-10T04:27:05;95744.25;;;18.50;61.76
22582;BME280;47125;48.542;9.052;2023-06-10T04:37:08;95736.66;;;18.52;62.35
22582;BME280;47125;48.542;9.052;2023-06-10T04:47:12;95748.19;;;18.58;62.70
22582;BME280;47125;48.542;9.052;2023-06-10T04:57:14;95746.78;;;18.60;63.14
22582;BME280;47125;48.542;9.052;2023-06-10T05:07:18;95755.13;;;18.64;63.33
22582;BME280;47125;48.542;9.052;2023-06-10T05:17:20;95756.22;;;18.82;63.78
22582;BME280;47125;48.542;9.052;2023-06-10T05:27:25;95768.34;;;18.84;63.60
22582;BME280;47125;48.542;9.052;2023-06-10T05:37:28;95776.09;;;18.91;63.20
22582;BME280;47125;48.542;9.052;2023-06-10T05:47:32;95777.25;;;19.03;62.68
22582;BME280;47125;48.542;9.052;2023-06-10T05:57:34;95791.22;;;19.10;63.40
22582;BME280;47125;48.542;9.052;2023-06-10T06:07:38;95774.06;;;19.47;63.21
22582;BME280;47125;48.542;9.052;2023-06-10T06:17:41;95784.13;;;19.60;62.48
22582;BME280;47125;48.542;9.052;2023-06-10T06:27:44;95781.34;;;19.79;62.47
22582;BME280;47125;48.542;9.052;2023-06-10T06:37:47;95784.56;;;19.95;62.15
22582;BME280;47125;48.542;9.052;2023-06-10T06:47:51;95791.69;;;20.31;61.90
22582;BME280;47125;48.542;9.052;2023-06-10T06:57:53;95800.63;;;20.46;61.60
22582;BME280;47125;48.542;9.052;2023-06-10T07:07:58;95798.28;;;20.66;62.47
22582;BME280;47125;48.542;9.052;2023-06-10T07:18:00;95792.16;;;20.97;61.22
22582;BME280;47125;48.542;9.052;2023-06-10T07:28:04;95780.41;;;21.23;60.91
22582;BME280;47125;48.542;9.052;2023-06-10T07:38:07;95794.69;;;21.37;60.41
22582;BME280;47125;48.542;9.052;2023-06-10T07:48:11;95788.00;;;21.66;59.74
22582;BME280;47125;48.542;9.052;2023-06-10T07:58:13;95788.69;;;21.80;58.39
22582;BME280;47125;48.542;9.052;2023-06-10T08:08:17;95788.06;;;22.14;56.98
22582;BME280;47125;48.542;9.052;2023-06-10T08:18:20;95791.50;;;22.45;57.30
22582;BME280;47125;48.542;9.052;2023-06-10T08:28:23;95791.09;;;22.69;56.50
22582;BME280;47125;48.542;9.052;2023-06-10T08:38:26;95798.63;;;23.15;54.78
22582;BME280;47125;48.542;9.052;2023-06-10T08:48:30;95791.59;;;23.31;54.51
22582;BME280;47125;48.542;9.052;2023-06-10T08:58:33;95794.59;;;23.38;54.06
22582;BME280;47125;48.542;9.052;2023-06-10T09:08:42;95789.00;;;23.60;52.10
22582;BME280;47125;48.542;9.052;2023-06-10T09:18:45;95785.63;;;24.01;53.58
22582;BME280;47125;48.542;9.052;2023-06-10T09:28:49;95779.16;;;24.23;52.68
22582;BME280;47125;48.542;9.052;2023-06-10T09:38:52;95776.84;;;24.62;51.92
22582;BME280;47125;48.542;9.052;2023-06-10T09:48:56;95776.91;;;24.54;49.75
22582;BME280;47125;48.542;9.052;2023-06-10T09:58:59;95782.25;;;25.12;50.21
22582;BME280;47125;48.542;9.052;2023-06-10T10:09:03;95767.00;;;25.11;47.48
22582;BME280;47125;48.542;9.052;2023-06-10T10:19:07;95776.00;;;25.65;47.48
22582;BME280;47125;48.542;9.052;2023-06-10T10:29:14;95769.91;;;25.60;47.16
22582;BME280;47125;48.542;9.052;2023-06-10T10:39:18;95769.19;;;25.71;46.17
22582;BME280;47125;48.542;9.052;2023-06-10T10:49:22;95761.84;;;25.63;45.49
22582;BME280;47125;48.542;9.052;2023-06-10T10:59:35;95764.88;;;25.95;45.63
22582;BME280;47125;48.542;9.052;2023-06-10T11:09:58;95763.06;;;26.59;44.10
22582;BME280;47125;48.542;9.052;2023-06-10T11:20:01;95763.31;;;26.42;43.70
22582;BME280;47125;48.542;9.052;2023-06-10T11:30:21;95747.69;;;27.62;42.85
22582;BME280;47125;48.542;9.052;2023-06-10T11:40:29;95756.41;;;27.24;43.03
22582;BME280;47125;48.542;9.052;2023-06-10T11:50:33;95745.44;;;27.24;40.69
22582;BME280;47125;48.542;9.052;2023-06-10T12:00:43;95740.97;;;28.38;39.32
22582;BME280;47125;48.542;9.052;2023-06-10T12:10:47;95740.28;;;28.25;39.97
22582;BME280;47125;48.542;9.052;2023-06-10T12:20:49;95734.44;;;28.77;38.99
22582;BME280;47125;48.542;9.052;2023-06-10T12:31:07;95729.44;;;27.85;38.65
22582;BME280;47125;48.542;9.052;2023-06-10T12:41:09;95725.84;;;29.17;37.49
22582;BME280;47125;48.542;9.052;2023-06-10T12:51:13;95721.72;;;29.65;35.60
22582;BME280;47125;48.542;9.052;2023-06-10T13:01:16;95712.06;;;29.97;36.37
22582;BME280;47125;48.542;9.052;2023-06-10T13:11:20;95704.00;;;29.05;35.54
22582;BME280;47125;48.542;9.052;2023-06-10T13:21:22;95702.44;;;29.65;35.48
22582;BME280;47125;48.542;9.052;2023-06-10T13:31:26;95689.03;;;29.41;36.30
22582;BME280;47125;48.542;9.052;2023-06-10T13:41:29;95686.94;;;29.34;36.18
22582;BME280;47125;48.542;9.052;2023-06-10T13:51:32;95675.53;;;30.00;35.91
22582;BME280;47125;48.542;9.052;2023-06-10T14:01:35;95673.66;;;30.08;35.55
22582;BME280;47125;48.542;9.052;2023-06-10T14:11:40;95677.28;;;28.67;36.85
22582;BME280;47125;48.542;9.052;2023-06-10T14:21:42;95665.59;;;29.73;35.82
22582;BME280;47125;48.542;9.052;2023-06-10T14:31:46;95661.97;;;29.69;34.93
22582;BME280;47125;48.542;9.052;2023-06-10T14:41:49;95661.75;;;28.05;37.17
22582;BME280;47125;48.542;9.052;2023-06-10T14:51:55;95647.19;;;29.13;36.38
22582;BME280;47125;48.542;9.052;2023-06-10T15:01:58;95652.41;;;28.10;37.84
22582;BME280;47125;48.542;9.052;2023-06-10T15:12:03;95640.84;;;27.54;37.92
22582;BME280;47125;48.542;9.052;2023-06-10T15:22:07;95637.00;;;28.21;37.81
22582;BME280;47125;48.542;9.052;2023-06-10T15:32:11;95639.00;;;28.59;39.34
22582;BME280;47125;48.542;9.052;2023-06-10T15:42:19;95639.28;;;28.03;38.14
22582;BME280;47125;48.542;9.052;2023-06-10T15:52:23;95626.50;;;27.76;39.22
22582;BME280;47125;48.542;9.052;2023-06-10T16:02:26;95638.69;;;28.10;39.83
22582;BME280;47125;48.542;9.052;2023-06-10T16:12:30;95637.25;;;28.51;40.49
22582;BME280;47125;48.542;9.052;2023-06-10T16:22:32;95633.78;;;28.19;40.35
22582;BME280;47125;48.542;9.052;2023-06-10T16:32:36;95630.97;;;28.15;41.00
22582;BME280;47125;48.542;9.052;2023-06-10T16:42:39;95630.81;;;28.08;40.56
22582;BME280;47125;48.542;9.052;2023-06-10T16:52:42;95632.31;;;27.90;39.79
22582;BME280;47125;48.542;9.052;2023-06-10T17:02:45;95641.53;;;27.82;41.75
22582;BME280;47125;48.542;9.052;2023-06-10T17:12:49;95647.66;;;27.60;41.86
22582;BME280;47125;48.542;9.052;2023-06-10T17:22:52;95657.03;;;27.59;39.99
22582;BME280;47125;48.542;9.052;2023-06-10T17:32:55;95662.91;;;27.29;40.36
22582;BME280;47125;48.542;9.052;2023-06-10T17:42:58;95662.19;;;27.17;40.63
22582;BME280;47125;48.542;9.052;2023-06-10T17:53:02;95665.78;;;26.65;39.48
22582;BME280;47125;48.542;9.052;2023-06-10T18:03:04;95668.09;;;26.63;39.34
22582;BME280;47125;48.542;9.052;2023-06-10T18:13:08;95682.25;;;26.53;39.80
22582;BME280;47125;48.542;9.052;2023-06-10T18:23:11;95691.88;;;26.35;40.54
22582;BME280;47125;48.542;9.052;2023-06-10T18:33:15;95689.63;;;25.89;42.24
22582;BME280;47125;48.542;9.052;2023-06-10T18:43:17;95705.44;;;25.71;43.60
22582;BME280;47125;48.542;9.052;2023-06-10T18:53:22;95714.59;;;25.42;45.01
22582;BME280;47125;48.542;9.052;2023-06-10T19:03:24;95735.53;;;25.59;44.75
22582;BME280;47125;48.542;9.052;2023-06-10T19:13:28;95742.28;;;25.41;45.03
22582;BME280;47125;48.542;9.052;2023-06-10T19:23:31;95758.28;;;25.30;45.22
22582;BME280;47125;48.542;9.052;2023-06-10T19:33:35;95759.81;;;25.07;45.23
22582;BME280;47125;48.542;9.052;2023-06-10T19:43:37;95770.75;;;24.86;46.34
22582;BME280;47125;48.542;9.052;2023-06-10T20:03:43;95785.84;;;24.63;46.65
22582;BME280;47125;48.542;9.052;2023-06-10T20:13:46;95794.53;;;24.56;46.35
22582;BME280;47125;48.542;9.052;2023-06-10T20:23:50;95807.81;;;24.37;46.73
22582;BME280;47125;48.542;9.052;2023-06-10T20:33:54;95815.63;;;24.18;47.44
22582;BME280;47125;48.542;9.052;2023-06-10T20:43:58;95831.97;;;24.09;47.60
22582;BME280;47125;48.542;9.052;2023-06-10T20:54:01;95839.38;;;24.00;48.23
22582;BME280;47125;48.542;9.052;2023-06-10T21:04:05;95846.53;;;23.84;49.39
22582;BME280;47125;48.542;9.052;2023-06-10T21:14:07;95841.91;;;23.59;49.85
22582;BME280;47125;48.542;9.052;2023-06-10T21:24:11;95854.59;;;23.64;50.29
22582;BME280;47125;48.542;9.052;2023-06-10T21:34:14;95850.41;;;23.32;51.63
22582;BME280;47125;48.542;9.052;2023-06-10T21:44:18;95852.97;;;23.37;51.37
22582;BME280;47125;48.542;9.052;2023-06-10T21:54:20;95855.38;;;23.30;51.84
22582;BME280;47125;48.542;9.052;2023-06-10T22:04:24;95854.88;;;22.85;53.45
22582;BME280;47125;48.542;9.052;2023-06-10T22:14:27;95859.84;;;23.09;52.04
22582;BME280;47125;48.542;9.052;2023-06-10T22:24:31;95861.25;;;22.72;53.22
22582;BME280;47125;48.542;9.052;2023-06-10T22:34:33;95852.94;;;22.77;53.23
22582;BME280;47125;48.542;9.052;2023-06-10T22:44:37;95850.75;;;22.48;53.86
22582;BME280;47125;48.542;9.052;2023-06-10T22:54:41;95853.00;;;22.46;54.33
22582;BME280;47125;48.542;9.052;2023-06-10T23:04:45;95858.41;;;22.37;55.04
22582;BME280;47125;48.542;9.052;2023-06-10T23:14:47;95849.72;;;22.35;55.10
22582;BME280;47125;48.542;9.052;2023-06-10T23:24:51;95862.50;;;22.26;55.93
22582;BME280;47125;48.542;9.052;2023-06-10T23:34:57;95874.03;;;22.23;55.42
22582;BME280;47125;48.542;9.052;2023-06-10T23:45:01;95869.47;;;22.02;56.11
22582;BME280;47125;48.542;9.052;2023-06-10T23:55:05;95877.38;;;21.89;56.57
